sensor_id;sensor_type;location;lat;lon;timestamp;pressure;altitude;pressure_sealevel;temperature;humidity
61697;BME280;47610;52.252;20.922;2022-11-21T00:01:45;99507.16;;;-3.34;100.00
61697;BME280;47610;52.252;20.922;2022-11-21T00:07:08;99505.92;;;-3.25;100.00
61697;BME280;47610;52.252;20.922;2022-11-21T00:12:30;99507.30;;;-3.17;100.00
61697;BME280;47610;52.252;20.922;2022-11-21T00:17:52;99505.80;;;-3.12;100.00
61697;BME280;47610;52.252;20.922;2022-11-21T00:23:15;99500.49;;;-3.10;100.00
61697;BME280;47610;52.252;20.922;2022-11-21T00:28:38;99497.55;;;-3.05;100.00
61697;BME280;47610;52.252;20.922;2022-11-21T00:34:00;99501.31;;;-2.98;100.00
61697;BME280;47610;52.252;20.922;2022-11-21T00:39:23;99507.17;;;-2.88;100.00
61697;BME280;47610;52.252;20.922;2022-11-21T00:44:46;99505.80;;;-2.82;100.00
61697;BME280;47610;52.252;20.922;2022-11-21T00:50:11;99500.45;;;-2.73;100.00
61697;BME280;47610;52.252;20.922;2022-11-21T00:55:33;99489.08;;;-2.70;100.00
61697;BME280;47610;52.252;20.922;2022-11-21T01:01:06;99485.92;;;-2.65;100.00
61697;BME280;47610;52.252;20.922;2022-11-21T01:06:29;99477.15;;;-2.59;100.00
61697;BME280;47610;52.252;20.922;2022-11-21T01:13:29;99463.70;;;-2.55;100.00
61697;BME280;47610;52.252;20.922;2022-11-21T01:18:52;99462.36;;;-2.61;100.00
61697;BME280;47610;52.252;20.922;2022-11-21T01:24:15;99450.52;;;-2.68;100.00
61697;BME280;47610;52.252;20.922;2022-11-21T01:29:37;99447.90;;;-2.75;100.00
61697;BME280;47610;52.252;20.922;2022-11-21T01:34:59;99449.04;;;-2.82;100.00
61697;BME280;47610;52.252;20.922;2022-11-21T01:40:21;99449.15;;;-2.89;100.00
61697;BME280;47610;52.252;20.922;2022-11-21T01:45:59;99445.76;;;-2.95;100.00
61697;BME280;47610;52.252;20.922;2022-11-21T01:51:27;99444.69;;;-2.98;100.00
61697;BME280;47610;52.252;20.922;2022-11-21T01:56:57;99446.27;;;-3.01;100.00
61697;BME280;47610;52.252;20.922;2022-11-21T02:02:22;99453.60;;;-3.05;100.00
61697;BME280;47610;52.252;20.922;2022-11-21T02:07:48;99458.99;;;-3.11;100.00
61697;BME280;47610;52.252;20.922;2022-11-21T02:13:13;99443.20;;;-3.21;100.00
61697;BME280;47610;52.252;20.922;2022-11-21T02:18:35;99439.09;;;-3.27;100.00
61697;BME280;47610;52.252;20.922;2022-11-21T02:24:03;99434.33;;;-3.31;100.00
61697;BME280;47610;52.252;20.922;2022-11-21T02:29:31;99439.18;;;-3.33;100.00
61697;BME280;47610;52.252;20.922;2022-11-21T02:34:54;99443.08;;;-3.36;100.00
61697;BME280;47610;52.252;20.922;2022-11-21T02:40:19;99438.94;;;-3.35;100.00
61697;BME280;47610;52.252;20.922;2022-11-21T02:45:45;99443.79;;;-3.34;100.00
61697;BME280;47610;52.252;20.922;2022-11-21T02:51:07;99454.09;;;-3.35;100.00
61697;BME280;47610;52.252;20.922;2022-11-21T02:56:29;99463.73;;;-3.37;100.00
61697;BME280;47610;52.252;20.922;2022-11-21T03:01:52;99464.52;;;-3.43;100.00
61697;BME280;47610;52.252;20.922;2022-11-21T03:07:15;99460.63;;;-3.48;100.00
61697;BME280;47610;52.252;20.922;2022-11-21T03:12:39;99465.35;;;-3.52;100.00
61697;BME280;47610;52.252;20.922;2022-11-21T03:18:03;99469.83;;;-3.57;100.00
61697;BME280;47610;52.252;20.922;2022-11-21T03:23:25;99476.36;;;-3.64;100.00
61697;BME280;47610;52.252;20.922;2022-11-21T03:28:48;99481.80;;;-3.69;100.00
61697;BME280;47610;52.252;20.922;2022-11-21T03:34:11;99483.50;;;-3.68;100.00
61697;BME280;47610;52.252;20.922;2022-11-21T03:39:33;99487.77;;;-3.67;100.00
61697;BME280;47610;52.252;20.922;2022-11-21T03:44:56;99491.17;;;-3.72;100.00
61697;BME280;47610;52.252;20.922;2022-11-21T03:50:19;99495.54;;;-3.74;100.00
61697;BME280;47610;52.252;20.922;2022-11-21T03:55:42;99498.27;;;-3.75;100.00
61697;BME280;47610;52.252;20.922;2022-11-21T04:01:06;99487.58;;;-3.79;100.00
61697;BME280;47610;52.252;20.922;2022-11-21T04:06:28;99478.98;;;-3.82;100.00
61697;BME280;47610;52.252;20.922;2022-11-21T04:11:50;99477.33;;;-3.83;100.00
61697;BME280;47610;52.252;20.922;2022-11-21T04:17:12;99468.87;;;-3.86;100.00
61697;BME280;47610;52.252;20.922;2022-11-21T04:22:35;99468.75;;;-3.85;100.00
61697;BME280;47610;52.252;20.922;2022-11-21T04:27:58;99472.77;;;-3.86;100.00
61697;BME280;47610;52.252;20.922;2022-11-21T04:33:21;99460.47;;;-3.90;100.00
61697;BME280;47610;52.252;20.922;2022-11-21T04:38:44;99462.03;;;-3.94;100.00
61697;BME280;47610;52.252;20.922;2022-11-21T04:44:08;99461.86;;;-3.97;100.00
61697;BME280;47610;52.252;20.922;2022-11-21T04:49:32;99454.88;;;-3.98;100.00
61697;BME280;47610;52.252;20.922;2022-11-21T04:54:57;99442.92;;;-3.99;100.00
61697;BME280;47610;52.252;20.922;2022-11-21T05:00:18;99439.58;;;-3.99;100.00
61697;BME280;47610;52.252;20.922;2022-11-21T05:05:41;99458.56;;;-4.00;100.00
61697;BME280;47610;52.252;20.922;2022-11-21T05:11:03;99452.59;;;-4.01;100.00
61697;BME280;47610;52.252;20.922;2022-11-21T05:16:25;99449.11;;;-4.05;100.00
61697;BME280;47610;52.252;20.922;2022-11-21T05:21:49;99456.55;;;-4.05;100.00
61697;BME280;47610;52.252;20.922;2022-11-21T05:27:11;99453.73;;;-4.07;100.00
61697;BME280;47610;52.252;20.922;2022-11-21T05:32:34;99442.89;;;-4.12;100.00
61697;BME280;47610;52.252;20.922;2022-11-21T05:37:59;99444.31;;;-4.20;100.00
61697;BME280;47610;52.252;20.922;2022-11-21T05:43:22;99446.79;;;-4.25;100.00
61697;BME280;47610;52.252;20.922;2022-11-21T05:48:45;99454.98;;;-4.30;100.00
61697;BME280;47610;52.252;20.922;2022-11-21T05:54:11;99461.52;;;-4.31;100.00
61697;BME280;47610;52.252;20.922;2022-11-21T05:59:35;99456.02;;;-4.33;100.00
61697;BME280;47610;52.252;20.922;2022-11-21T06:04:57;99450.77;;;-4.34;100.00
61697;BME280;47610;52.252;20.922;2022-11-21T06:10:20;99446.64;;;-4.34;100.00
61697;BME280;47610;52.252;20.922;2022-11-21T06:15:43;99439.52;;;-4.31;100.00
61697;BME280;47610;52.252;20.922;2022-11-21T06:21:11;99440.14;;;-4.25;100.00
61697;BME280;47610;52.252;20.922;2022-11-21T06:26:34;99446.07;;;-4.20;100.00
61697;BME280;47610;52.252;20.922;2022-11-21T06:31:56;99445.22;;;-4.07;100.00
61697;BME280;47610;52.252;20.922;2022-11-21T06:37:19;99437.05;;;-3.92;100.00
61697;BME280;47610;52.252;20.922;2022-11-21T06:42:41;99442.19;;;-3.87;100.00
61697;BME280;47610;52.252;20.922;2022-11-21T06:48:03;99455.06;;;-3.81;100.00
61697;BME280;47610;52.252;20.922;2022-11-21T06:53:25;99461.90;;;-3.67;100.00
61697;BME280;47610;52.252;20.922;2022-11-21T06:58:47;99460.42;;;-3.56;100.00
61697;BME280;47610;52.252;20.922;2022-11-21T07:04:09;99457.48;;;-3.44;100.00
61697;BME280;47610;52.252;20.922;2022-11-21T07:09:32;99453.96;;;-3.38;100.00
61697;BME280;47610;52.252;20.922;2022-11-21T07:14:54;99456.38;;;-3.36;100.00
61697;BME280;47610;52.252;20.922;2022-11-21T07:20:17;99451.80;;;-3.22;100.00
61697;BME280;47610;52.252;20.922;2022-11-21T07:25:40;99444.41;;;-3.02;100.00
61697;BME280;47610;52.252;20.922;2022-11-21T07:31:05;99431.40;;;-2.90;100.00
61697;BME280;47610;52.252;20.922;2022-11-21T07:36:28;99422.19;;;-2.80;100.00
61697;BME280;47610;52.252;20.922;2022-11-21T07:41:51;99418.59;;;-2.72;100.00
61697;BME280;47610;52.252;20.922;2022-11-21T07:47:13;99413.58;;;-2.62;100.00
61697;BME280;47610;52.252;20.922;2022-11-21T07:52:35;99401.86;;;-2.49;100.00
61697;BME280;47610;52.252;20.922;2022-11-21T07:58:03;99408.83;;;-2.32;100.00
61697;BME280;47610;52.252;20.922;2022-11-21T08:03:27;99417.69;;;-2.08;100.00
61697;BME280;47610;52.252;20.922;2022-11-21T08:08:52;99420.77;;;-1.88;100.00
61697;BME280;47610;52.252;20.922;2022-11-21T08:14:15;99423.90;;;-1.32;100.00
61697;BME280;47610;52.252;20.922;2022-11-21T08:19:38;99427.02;;;0.58;99.99
61697;BME280;47610;52.252;20.922;2022-11-21T08:25:00;99435.54;;;2.11;94.61
61697;BME280;47610;52.252;20.922;2022-11-21T08:30:23;99429.95;;;3.23;88.54
61697;BME280;47610;52.252;20.922;2022-11-21T08:35:47;99425.77;;;4.36;83.02
61697;BME280;47610;52.252;20.922;2022-11-21T08:41:15;99424.65;;;5.06;78.92
61697;BME280;47610;52.252;20.922;2022-11-21T08:46:38;99423.02;;;5.32;72.19
61697;BME280;47610;52.252;20.922;2022-11-21T08:52:00;99421.30;;;5.75;67.44
61697;BME280;47610;52.252;20.922;2022-11-21T08:57:25;99420.36;;;5.97;64.98
61697;BME280;47610;52.252;20.922;2022-11-21T09:02:47;99419.69;;;5.66;62.52
61697;BME280;47610;52.252;20.922;2022-11-21T09:08:09;99419.42;;;5.56;62.03
61697;BME280;47610;52.252;20.922;2022-11-21T09:13:32;99414.08;;;5.44;60.61
61697;BME280;47610;52.252;20.922;2022-11-21T09:18:54;99409.59;;;5.42;60.69
61697;BME280;47610;52.252;20.922;2022-11-21T09:24:16;99406.42;;;5.13;60.48
61697;BME280;47610;52.252;20.922;2022-11-21T09:29:38;99406.39;;;4.83;60.78
61697;BME280;47610;52.252;20.922;2022-11-21T09:35:00;99401.80;;;4.84;61.94
61697;BME280;47610;52.252;20.922;2022-11-21T09:40:25;99396.04;;;5.19;61.28
61697;BME280;47610;52.252;20.922;2022-11-21T09:45:49;99388.19;;;5.29;60.11
61697;BME280;47610;52.252;20.922;2022-11-21T09:51:17;99382.16;;;4.90;58.57
61697;BME280;47610;52.252;20.922;2022-11-21T09:56:42;99374.02;;;4.55;59.48
61697;BME280;47610;52.252;20.922;2022-11-21T10:02:14;99361.42;;;4.56;59.56
61697;BME280;47610;52.252;20.922;2022-11-21T10:08:15;99351.05;;;4.27;59.21
61697;BME280;47610;52.252;20.922;2022-11-21T10:13:48;99348.35;;;4.10;59.94
61697;BME280;47610;52.252;20.922;2022-11-21T10:25:07;99344.75;;;3.82;61.20
61697;BME280;47610;52.252;20.922;2022-11-21T10:30:34;99339.02;;;3.70;62.25
61697;BME280;47610;52.252;20.922;2022-11-21T10:36:04;99337.51;;;3.66;63.22
61697;BME280;47610;52.252;20.922;2022-11-21T10:41:39;99329.02;;;3.71;63.40
61697;BME280;47610;52.252;20.922;2022-11-21T10:47:10;99324.26;;;3.59;64.08
61697;BME280;47610;52.252;20.922;2022-11-21T10:52:37;99326.83;;;3.65;64.68
61697;BME280;47610;52.252;20.922;2022-11-21T10:58:17;99329.70;;;3.44;64.71
61697;BME280;47610;52.252;20.922;2022-11-21T11:03:39;99329.17;;;3.27;65.97
61697;BME280;47610;52.252;20.922;2022-11-21T11:09:03;99325.46;;;3.13;67.13
61697;BME280;47610;52.252;20.922;2022-11-21T11:14:31;99328.55;;;2.91;68.05
61697;BME280;47610;52.252;20.922;2022-11-21T11:20:03;99337.61;;;2.75;69.44
61697;BME280;47610;52.252;20.922;2022-11-21T11:25:26;99342.42;;;2.69;70.27
61697;BME280;47610;52.252;20.922;2022-11-21T11:30:56;99339.17;;;2.55;71.39
61697;BME280;47610;52.252;20.922;2022-11-21T11:36:28;99335.21;;;2.41;72.52
61697;BME280;47610;52.252;20.922;2022-11-21T11:42:19;99331.72;;;2.30;74.08
61697;BME280;47610;52.252;20.922;2022-11-21T11:47:51;99327.23;;;2.28;75.45
61697;BME280;47610;52.252;20.922;2022-11-21T11:53:19;99316.45;;;2.26;76.38
61697;BME280;47610;52.252;20.922;2022-11-21T11:58:46;99314.13;;;2.27;77.14
61697;BME280;47610;52.252;20.922;2022-11-21T12:04:14;99316.29;;;2.26;77.71
61697;BME280;47610;52.252;20.922;2022-11-21T12:09:41;99318.29;;;2.22;78.54
61697;BME280;47610;52.252;20.922;2022-11-21T12:15:15;99318.90;;;2.23;79.33
61697;BME280;47610;52.252;20.922;2022-11-21T12:20:45;99314.94;;;2.16;80.05
61697;BME280;47610;52.252;20.922;2022-11-21T12:26:30;99298.74;;;2.15;80.65
61697;BME280;47610;52.252;20.922;2022-11-21T12:32:08;99283.73;;;2.10;81.15
61697;BME280;47610;52.252;20.922;2022-11-21T12:37:42;99276.56;;;2.14;81.77
61697;BME280;47610;52.252;20.922;2022-11-21T12:43:23;99278.02;;;2.13;82.27
61697;BME280;47610;52.252;20.922;2022-11-21T12:48:57;99267.95;;;2.19;82.82
61697;BME280;47610;52.252;20.922;2022-11-21T12:54:50;99258.64;;;2.31;82.84
61697;BME280;47610;52.252;20.922;2022-11-21T13:00:22;99251.28;;;2.37;82.99
61697;BME280;47610;52.252;20.922;2022-11-21T13:05:52;99254.38;;;2.42;83.50
61697;BME280;47610;52.252;20.922;2022-11-21T13:11:26;99259.76;;;2.45;84.00
61697;BME280;47610;52.252;20.922;2022-11-21T13:16:59;99263.07;;;2.34;84.58
61697;BME280;47610;52.252;20.922;2022-11-21T13:22:54;99263.09;;;2.20;85.98
61697;BME280;47610;52.252;20.922;2022-11-21T13:28:35;99259.66;;;2.10;87.38
61697;BME280;47610;52.252;20.922;2022-11-21T13:33:59;99253.69;;;1.95;88.78
61697;BME280;47610;52.252;20.922;2022-11-21T13:44:53;99252.11;;;1.69;91.11
61697;BME280;47610;52.252;20.922;2022-11-21T13:50:25;99250.71;;;1.61;91.96
61697;BME280;47610;52.252;20.922;2022-11-21T13:55:57;99243.76;;;1.54;92.26
61697;BME280;47610;52.252;20.922;2022-11-21T14:01:33;99239.02;;;1.56;92.88
61697;BME280;47610;52.252;20.922;2022-11-21T14:07:20;99235.00;;;1.59;93.16
61697;BME280;47610;52.252;20.922;2022-11-21T14:12:47;99231.39;;;1.60;93.56
61697;BME280;47610;52.252;20.922;2022-11-21T14:18:20;99227.20;;;1.60;93.88
61697;BME280;47610;52.252;20.922;2022-11-21T14:23:43;99224.41;;;1.65;94.00
61697;BME280;47610;52.252;20.922;2022-11-21T14:29:19;99221.94;;;1.69;94.27
61697;BME280;47610;52.252;20.922;2022-11-21T14:34:41;99222.26;;;1.69;94.28
61697;BME280;47610;52.252;20.922;2022-11-21T14:40:08;99229.44;;;1.66;94.44
61697;BME280;47610;52.252;20.922;2022-11-21T14:45:31;99233.70;;;1.59;94.74
61697;BME280;47610;52.252;20.922;2022-11-21T14:50:54;99237.39;;;1.49;95.17
61697;BME280;47610;52.252;20.922;2022-11-21T14:56:23;99231.47;;;1.43;95.76
61697;BME280;47610;52.252;20.922;2022-11-21T15:01:57;99232.99;;;1.37;96.26
61697;BME280;47610;52.252;20.922;2022-11-21T15:07:22;99237.61;;;1.32;96.75
61697;BME280;47610;52.252;20.922;2022-11-21T15:12:52;99236.59;;;1.29;96.83
61697;BME280;47610;52.252;20.922;2022-11-21T15:18:19;99236.16;;;1.26;96.85
61697;BME280;47610;52.252;20.922;2022-11-21T15:23:42;99227.07;;;1.27;96.82
61697;BME280;47610;52.252;20.922;2022-11-21T15:29:19;99228.70;;;1.27;96.81
61697;BME280;47610;52.252;20.922;2022-11-21T15:34:41;99231.09;;;1.25;97.03
61697;BME280;47610;52.252;20.922;2022-11-21T15:40:04;99229.45;;;1.22;97.50
61697;BME280;47610;52.252;20.922;2022-11-21T15:45:26;99230.97;;;1.16;98.13
61697;BME280;47610;52.252;20.922;2022-11-21T15:50:49;99239.91;;;1.13;99.04
61697;BME280;47610;52.252;20.922;2022-11-21T15:56:13;99235.77;;;1.03;99.73
61697;BME280;47610;52.252;20.922;2022-11-21T16:01:36;99238.77;;;0.99;100.00
61697;BME280;47610;52.252;20.922;2022-11-21T16:06:58;99234.87;;;0.93;100.00
61697;BME280;47610;52.252;20.922;2022-11-21T16:12:20;99233.02;;;0.87;100.00
61697;BME280;47610;52.252;20.922;2022-11-21T16:17:42;99228.41;;;0.84;100.00
61697;BME280;47610;52.252;20.922;2022-11-21T16:23:04;99224.95;;;0.85;100.00
61697;BME280;47610;52.252;20.922;2022-11-21T16:28:26;99224.60;;;0.78;100.00
61697;BME280;47610;52.252;20.922;2022-11-21T16:33:48;99229.14;;;0.75;100.00
61697;BME280;47610;52.252;20.922;2022-11-21T16:39:10;99232.74;;;0.68;100.00
61697;BME280;47610;52.252;20.922;2022-11-21T16:44:32;99233.97;;;0.59;100.00
61697;BME280;47610;52.252;20.922;2022-11-21T16:49:54;99231.83;;;0.51;100.00
61697;BME280;47610;52.252;20.922;2022-11-21T16:55:16;99231.77;;;0.48;100.00
61697;BME280;47610;52.252;20.922;2022-11-21T17:00:41;99229.00;;;0.47;100.00
61697;BME280;47610;52.252;20.922;2022-11-21T17:06:03;99227.52;;;0.52;100.00
61697;BME280;47610;52.252;20.922;2022-11-21T17:11:29;99223.98;;;0.56;100.00
61697;BME280;47610;52.252;20.922;2022-11-21T17:16:52;99227.80;;;0.54;100.00
61697;BME280;47610;52.252;20.922;2022-11-21T17:22:14;99224.52;;;0.50;100.00
61697;BME280;47610;52.252;20.922;2022-11-21T17:27:36;99230.78;;;0.52;100.00
61697;BME280;47610;52.252;20.922;2022-11-21T17:32:59;99227.20;;;0.52;100.00
61697;BME280;47610;52.252;20.922;2022-11-21T17:38:20;99215.63;;;0.55;100.00
61697;BME280;47610;52.252;20.922;2022-11-21T17:43:43;99212.41;;;0.60;100.00
61697;BME280;47610;52.252;20.922;2022-11-21T17:49:05;99213.77;;;0.62;100.00
61697;BME280;47610;52.252;20.922;2022-11-21T17:54:27;99217.63;;;0.66;100.00
61697;BME280;47610;52.252;20.922;2022-11-21T17:59:49;99218.31;;;0.70;100.00
61697;BME280;47610;52.252;20.922;2022-11-21T18:05:11;99216.55;;;0.74;100.00
61697;BME280;47610;52.252;20.922;2022-11-21T18:10:33;99221.89;;;0.81;100.00
61697;BME280;47610;52.252;20.922;2022-11-21T18:15:58;99221.90;;;0.89;100.00
61697;BME280;47610;52.252;20.922;2022-11-21T18:21:23;99222.93;;;0.95;100.00
61697;BME280;47610;52.252;20.922;2022-11-21T18:26:45;99226.53;;;1.01;100.00
61697;BME280;47610;52.252;20.922;2022-11-21T18:32:07;99223.55;;;1.05;100.00
61697;BME280;47610;52.252;20.922;2022-11-21T18:37:29;99224.36;;;1.13;100.00
61697;BME280;47610;52.252;20.922;2022-11-21T18:42:54;99221.67;;;1.14;100.00
61697;BME280;47610;52.252;20.922;2022-11-21T18:48:16;99219.20;;;1.16;100.00
61697;BME280;47610;52.252;20.922;2022-11-21T18:53:39;99222.36;;;1.13;100.00
61697;BME280;47610;52.252;20.922;2022-11-21T18:59:02;99223.25;;;1.12;100.00
61697;BME280;47610;52.252;20.922;2022-11-21T19:04:25;99224.54;;;1.11;100.00
61697;BME280;47610;52.252;20.922;2022-11-21T19:09:48;99224.45;;;1.08;100.00
61697;BME280;47610;52.252;20.922;2022-11-21T19:15:11;99230.29;;;1.08;100.00
61697;BME280;47610;52.252;20.922;2022-11-21T19:20:37;99231.42;;;1.04;100.00
61697;BME280;47610;52.252;20.922;2022-11-21T19:26:01;99229.27;;;1.02;100.00
61697;BME280;47610;52.252;20.922;2022-11-21T19:31:26;99236.40;;;0.99;100.00
61697;BME280;47610;52.252;20.922;2022-11-21T19:36:48;99236.10;;;0.98;100.00
61697;BME280;47610;52.252;20.922;2022-11-21T19:42:11;99236.14;;;0.94;100.00
61697;BME280;47610;52.252;20.922;2022-11-21T19:47:33;99235.26;;;0.98;100.00
61697;BME280;47610;52.252;20.922;2022-11-21T19:52:55;99236.85;;;1.05;100.00
61697;BME280;47610;52.252;20.922;2022-11-21T19:58:18;99240.32;;;1.11;100.00
61697;BME280;47610;52.252;20.922;2022-11-21T20:03:42;99245.59;;;1.15;100.00
61697;BME280;47610;52.252;20.922;2022-11-21T20:09:05;99249.52;;;1.16;100.00
61697;BME280;47610;52.252;20.922;2022-11-21T20:14:29;99257.48;;;1.16;100.00
61697;BME280;47610;52.252;20.922;2022-11-21T20:19:51;99268.61;;;1.20;100.00
61697;BME280;47610;52.252;20.922;2022-11-21T20:25:14;99267.36;;;1.22;100.00
61697;BME280;47610;52.252;20.922;2022-11-21T20:30:38;99267.02;;;1.24;100.00
61697;BME280;47610;52.252;20.922;2022-11-21T20:36:06;99265.63;;;1.21;100.00
61697;BME280;47610;52.252;20.922;2022-11-21T20:41:32;99266.15;;;1.18;100.00
61697;BME280;47610;52.252;20.922;2022-11-21T20:46:55;99264.27;;;1.11;100.00
61697;BME280;47610;52.252;20.922;2022-11-21T20:52:17;99266.84;;;1.03;100.00
61697;BME280;47610;52.252;20.922;2022-11-21T20:57:40;99275.13;;;1.06;100.00
61697;BME280;47610;52.252;20.922;2022-11-21T21:03:02;99277.98;;;1.08;100.00
61697;BME280;47610;52.252;20.922;2022-11-21T21:08:27;99281.98;;;1.18;100.00
61697;BME280;47610;52.252;20.922;2022-11-21T21:13:51;99283.88;;;1.24;100.00
61697;BME280;47610;52.252;20.922;2022-11-21T21:19:14;99285.91;;;1.26;100.00
61697;BME280;47610;52.252;20.922;2022-11-21T21:24:36;99281.17;;;1.24;100.00
61697;BME280;47610;52.252;20.922;2022-11-21T21:29:58;99284.35;;;1.23;100.00
61697;BME280;47610;52.252;20.922;2022-11-21T21:35:20;99279.02;;;1.22;100.00
61697;BME280;47610;52.252;20.922;2022-11-21T21:40:43;99280.29;;;1.23;100.00
61697;BME280;47610;52.252;20.922;2022-11-21T21:46:09;99284.95;;;1.23;100.00
61697;BME280;47610;52.252;20.922;2022-11-21T21:51:32;99291.59;;;1.24;100.00
61697;BME280;47610;52.252;20.922;2022-11-21T21:56:54;99294.88;;;1.21;100.00
61697;BME280;47610;52.252;20.922;2022-11-21T22:02:17;99290.04;;;1.23;100.00
61697;BME280;47610;52.252;20.922;2022-11-21T22:07:40;99288.91;;;1.20;100.00
61697;BME280;47610;52.252;20.922;2022-11-21T22:13:02;99283.17;;;1.18;100.00
61697;BME280;47610;52.252;20.922;2022-11-21T22:18:25;99280.04;;;1.16;100.00
61697;BME280;47610;52.252;20.922;2022-11-21T22:23:48;99290.25;;;1.17;100.00
61697;BME280;47610;52.252;20.922;2022-11-21T22:29:12;99287.85;;;1.14;100.00
61697;BME280;47610;52.252;20.922;2022-11-21T22:34:35;99291.79;;;1.13;100.00
61697;BME280;47610;52.252;20.922;2022-11-21T22:39:57;99291.91;;;1.11;100.00
61697;BME280;47610;52.252;20.922;2022-11-21T22:45:20;99291.69;;;1.13;100.00
61697;BME280;47610;52.252;20.922;2022-11-21T22:50:46;99293.80;;;1.14;100.00
61697;BME280;47610;52.252;20.922;2022-11-21T22:56:10;99297.64;;;1.16;100.00
61697;BME280;47610;52.252;20.922;2022-11-21T23:01:33;99295.42;;;1.18;100.00
61697;BME280;47610;52.252;20.922;2022-11-21T23:06:56;99294.16;;;1.23;100.00
61697;BME280;47610;52.252;20.922;2022-11-21T23:12:18;99301.04;;;1.25;100.00
61697;BME280;47610;52.252;20.922;2022-11-21T23:17:40;99304.77;;;1.28;100.00
61697;BME280;47610;52.252;20.922;2022-11-21T23:23:03;99301.15;;;1.25;100.00
61697;BME280;47610;52.252;20.922;2022-11-21T23:28:26;99300.23;;;1.29;100.00
61697;BME280;47610;52.252;20.922;2022-11-21T23:33:48;99302.20;;;1.29;100.00
61697;BME280;47610;52.252;20.922;2022-11-21T23:39:11;99299.30;;;1.28;100.00
61697;BME280;47610;52.252;20.922;2022-11-21T23:44:34;99294.30;;;1.30;100.00
61697;BME280;47610;52.252;20.922;2022-11-21T23:49:58;99289.46;;;1.32;100.00
61697;BME280;47610;52.252;20.922;2022-11-21T23:55:20;99289.19;;;1.35;100.00
